Belair, Louisiana
Current Conditions -  °F | °C
As of 3:55 PM on Wednesday 28 Jan 2015 (Local Time) from KNBG Reporting Station
Clear Clear  
Wind Chill: 62°   Ceiling: Unl
Heat Index: 62°   Visibility: 10mi
Dew Point: 43°   Wind: 10mph
Humidity: 50%   Direction: 130°SE
Pressure: 30.23"   Gusts: NA
Location:  29.7092°N, 89.8867°W
Report Text: KNBG 282155Z 13009KT 10SM CLR 17/06 A3023 RMK AO2 SLP236 T01670061 $
Loading
Personal Weather Stations






























Interactive Weather Map New forecast layout! Learn more

10-Day Weather Forecast

Advertisements
Track Severe Weather on mobile